createdAt,value
2023-09-15T00:00:44.380Z,12.43
2023-09-15T00:03:12.455Z,14.05
2023-09-15T00:05:39.197Z,12.20
2023-09-15T00:08:06.790Z,11.13
2023-09-15T00:10:39.604Z,15.70
2023-09-15T00:13:06.416Z,12.20
2023-09-15T00:15:33.496Z,11.52
2023-09-15T00:18:00.405Z,12.52
2023-09-15T00:20:26.913Z,14.70
2023-09-15T00:22:55.311Z,9.55
2023-09-15T00:25:27.462Z,10.98
2023-09-15T00:27:58.709Z,11.50
2023-09-15T00:30:26.587Z,13.10
2023-09-15T00:32:53.986Z,10.88
2023-09-15T00:35:24.128Z,14.27
2023-09-15T00:37:52.026Z,10.48
2023-09-15T00:40:20.982Z,12.43
2023-09-15T00:42:49.081Z,10.93
2023-09-15T00:45:16.898Z,11.60
2023-09-15T00:47:47.432Z,15.00
2023-09-15T00:50:21.187Z,10.35
2023-09-15T00:52:52.580Z,8.70
2023-09-15T00:55:23.027Z,9.13
2023-09-15T00:57:55.762Z,11.77
2023-09-15T01:00:23.199Z,10.60
2023-09-15T01:02:51.035Z,11.73
2023-09-15T01:05:24.712Z,11.57
2023-09-15T01:07:54.010Z,10.35
2023-09-15T01:10:21.796Z,11.57
2023-09-15T01:12:50.422Z,10.30
2023-09-15T01:15:20.814Z,9.65
2023-09-15T01:18:08.433Z,11.00
2023-09-15T01:20:49.895Z,9.45
2023-09-15T01:23:38.181Z,9.85
2023-09-15T01:29:06.361Z,13.40
2023-09-15T01:31:34.892Z,9.05
2023-09-15T01:34:01.914Z,9.35
2023-09-15T01:36:28.409Z,8.75
2023-09-15T01:38:54.855Z,9.50
2023-09-15T01:41:21.594Z,11.43
2023-09-15T01:43:48.093Z,9.80
2023-09-15T01:46:14.671Z,11.05
2023-09-15T01:48:41.844Z,11.18
2023-09-15T01:51:09.777Z,8.85
2023-09-15T01:53:37.682Z,10.45
2023-09-15T01:56:04.290Z,10.57
2023-09-15T01:58:30.707Z,11.57
2023-09-15T02:00:57.270Z,33.22
2023-09-15T02:03:23.882Z,13.23
2023-09-15T02:05:50.432Z,9.02
2023-09-15T02:08:16.856Z,11.00
2023-09-15T02:10:43.245Z,12.50
2023-09-15T02:13:09.839Z,12.63
2023-09-15T02:15:36.366Z,10.80
2023-09-15T02:18:03.009Z,13.52
2023-09-15T02:20:30.034Z,10.50
2023-09-15T02:22:58.197Z,12.35
2023-09-15T02:25:24.747Z,10.82
2023-09-15T02:27:51.238Z,10.13
2023-09-15T02:30:17.666Z,9.05
2023-09-15T02:32:45.731Z,12.00
2023-09-15T02:35:12.329Z,9.70
2023-09-15T02:37:38.804Z,9.43
2023-09-15T02:40:06.545Z,10.45
2023-09-15T02:42:34.735Z,8.98
2023-09-15T02:45:01.187Z,11.55
2023-09-15T02:47:30.023Z,9.85
2023-09-15T02:49:56.527Z,7.55
2023-09-15T02:52:22.949Z,9.23
2023-09-15T02:54:49.705Z,10.18
2023-09-15T02:57:16.165Z,9.13
2023-09-15T02:59:42.581Z,9.02
2023-09-15T03:02:13.705Z,10.68
2023-09-15T03:04:41.068Z,10.88
2023-09-15T03:07:08.063Z,12.50
2023-09-15T03:09:34.795Z,7.78
2023-09-15T03:12:01.333Z,11.68
2023-09-15T03:14:27.803Z,12.10
2023-09-15T03:16:54.759Z,9.55
2023-09-15T03:19:22.714Z,8.75
2023-09-15T03:21:49.247Z,13.95
2023-09-15T03:24:15.698Z,10.05
2023-09-15T03:26:42.182Z,10.93
2023-09-15T03:29:09.090Z,9.07
2023-09-15T03:31:35.602Z,10.02
2023-09-15T03:34:02.163Z,11.32
2023-09-15T03:36:30.139Z,10.57
2023-09-15T03:38:57.438Z,9.60
2023-09-15T03:41:27.058Z,9.63
2023-09-15T03:43:53.470Z,8.73
2023-09-15T03:46:20.063Z,8.25
2023-09-15T03:48:46.793Z,10.80
2023-09-15T03:51:13.450Z,9.63
2023-09-15T03:53:39.910Z,12.00
2023-09-15T03:56:06.503Z,10.43
2023-09-15T03:58:36.229Z,9.80
2023-09-15T04:01:04.328Z,8.25
2023-09-15T04:03:30.908Z,10.30
2023-09-15T04:05:57.347Z,11.95
2023-09-15T04:08:23.790Z,10.60
2023-09-15T04:10:50.240Z,11.57
2023-09-15T04:13:16.732Z,8.77
2023-09-15T04:15:43.259Z,9.20
2023-09-15T04:18:12.814Z,7.75
2023-09-15T04:20:45.989Z,11.60
2023-09-15T04:23:13.441Z,10.40
2023-09-15T04:25:39.837Z,9.95
2023-09-15T04:28:06.362Z,9.63
2023-09-15T04:30:32.825Z,10.10
2023-09-15T04:33:01.065Z,10.90
2023-09-15T04:35:28.743Z,9.38
2023-09-15T04:37:55.785Z,8.10
2023-09-15T04:40:22.798Z,9.70
2023-09-15T04:42:49.315Z,9.02
2023-09-15T04:45:15.796Z,11.40
2023-09-15T04:47:42.375Z,12.55
2023-09-15T04:50:09.274Z,8.50
2023-09-15T04:52:35.758Z,9.93
2023-09-15T04:55:02.347Z,9.63
2023-09-15T04:57:28.819Z,8.57
2023-09-15T04:59:55.684Z,8.98
2023-09-15T05:02:24.607Z,9.68
2023-09-15T05:04:52.448Z,12.93
2023-09-15T05:07:19.050Z,8.88
2023-09-15T05:09:46.816Z,11.60
2023-09-15T05:12:16.446Z,11.07
2023-09-15T05:14:43.236Z,9.57
2023-09-15T05:17:09.796Z,11.85
2023-09-15T05:19:36.242Z,8.88
2023-09-15T05:22:02.885Z,10.13
2023-09-15T05:24:29.290Z,9.93
2023-09-15T05:26:55.696Z,10.35
2023-09-15T05:29:22.151Z,9.70
2023-09-15T05:31:48.741Z,14.02
2023-09-15T05:34:15.286Z,12.50
2023-09-15T05:36:41.953Z,11.38
2023-09-15T05:39:08.607Z,11.70
2023-09-15T05:41:35.186Z,13.35
2023-09-15T05:44:01.694Z,10.07
2023-09-15T05:46:29.078Z,11.98
2023-09-15T05:48:55.689Z,10.20
2023-09-15T05:51:22.181Z,10.45
2023-09-15T05:53:48.602Z,10.27
2023-09-15T05:56:15.270Z,12.57
2023-09-15T05:58:42.705Z,11.55
2023-09-15T06:01:09.263Z,12.82
2023-09-15T06:03:37.628Z,15.73
2023-09-15T06:06:04.467Z,16.85
2023-09-15T06:08:31.090Z,24.35
2023-09-15T06:10:57.984Z,26.85
2023-09-15T06:13:24.541Z,24.83
2023-09-15T06:15:51.078Z,18.27
2023-09-15T06:18:17.548Z,16.40
2023-09-15T06:20:44.091Z,14.35
2023-09-15T06:23:10.495Z,15.25
2023-09-15T06:25:37.019Z,14.70
2023-09-15T06:28:19.115Z,11.10
2023-09-15T06:30:47.691Z,12.98
2023-09-15T06:33:14.185Z,12.60
2023-09-15T06:35:41.081Z,11.85
2023-09-15T06:38:08.072Z,11.98
2023-09-15T06:40:36.595Z,12.43
2023-09-15T06:45:35.640Z,11.52
2023-09-15T06:48:03.344Z,10.75
2023-09-15T06:50:29.993Z,15.23
2023-09-15T06:52:56.447Z,11.65
2023-09-15T06:55:23.020Z,10.38
2023-09-15T06:57:49.529Z,11.15
2023-09-15T07:00:16.427Z,14.18
2023-09-15T07:02:42.939Z,12.68
2023-09-15T07:05:09.618Z,10.57
2023-09-15T07:07:36.141Z,12.82
2023-09-15T07:10:02.851Z,11.88
2023-09-15T07:12:29.616Z,13.77
2023-09-15T07:14:56.053Z,11.68
2023-09-15T07:17:22.660Z,10.95
2023-09-15T07:19:53.134Z,12.50
2023-09-15T07:22:21.692Z,9.57
2023-09-15T07:27:14.517Z,13.48
2023-09-15T07:29:40.999Z,10.95
2023-09-15T07:32:08.179Z,9.95
2023-09-15T07:34:34.902Z,10.98
2023-09-15T07:37:01.718Z,15.00
2023-09-15T07:39:30.815Z,8.73
2023-09-15T07:41:57.331Z,10.60
2023-09-15T07:44:23.889Z,11.68
2023-09-15T07:46:50.638Z,9.80
2023-09-15T07:49:17.189Z,13.35
2023-09-15T07:51:44.296Z,10.55
2023-09-15T07:54:10.804Z,13.82
2023-09-15T07:56:38.089Z,11.27
2023-09-15T07:59:04.741Z,12.20
2023-09-15T08:01:31.398Z,10.18
2023-09-15T08:03:58.209Z,11.13
2023-09-15T08:06:27.345Z,11.55
2023-09-15T08:08:54.187Z,11.30
2023-09-15T08:11:21.126Z,8.88
2023-09-15T08:13:47.927Z,13.02
2023-09-15T08:16:15.031Z,13.10
2023-09-15T08:18:41.757Z,9.77
2023-09-15T08:21:08.329Z,13.95
2023-09-15T08:23:35.756Z,15.63
2023-09-15T08:26:02.528Z,12.10
2023-09-15T08:28:29.206Z,10.77
2023-09-15T08:30:55.915Z,8.13
2023-09-15T08:33:22.388Z,9.88
2023-09-15T08:35:48.920Z,11.27
2023-09-15T08:38:15.443Z,9.85
2023-09-15T08:40:51.329Z,10.20
2023-09-15T08:43:18.066Z,11.10
2023-09-15T08:45:49.012Z,11.40
2023-09-15T08:48:24.932Z,10.57
2023-09-15T08:50:53.457Z,9.55
2023-09-15T08:53:20.841Z,9.07
2023-09-15T08:55:47.818Z,11.30
2023-09-15T08:58:15.376Z,8.25
2023-09-15T09:00:43.201Z,12.10
2023-09-15T09:03:14.016Z,8.60
2023-09-15T09:05:48.029Z,11.95
2023-09-15T09:08:15.141Z,10.27
2023-09-15T09:10:42.562Z,13.38
2023-09-15T09:13:09.396Z,14.50
2023-09-15T09:15:36.861Z,10.63
2023-09-15T09:18:17.532Z,8.00
2023-09-15T09:20:44.569Z,9.13
2023-09-15T09:23:11.495Z,13.18
2023-09-15T09:25:40.773Z,11.82
2023-09-15T09:28:07.435Z,10.68
2023-09-15T09:30:34.214Z,11.88
2023-09-15T09:33:00.692Z,11.00
2023-09-15T09:35:27.612Z,10.88
2023-09-15T09:37:56.221Z,8.80
2023-09-15T09:40:23.504Z,10.60
2023-09-15T09:42:50.958Z,10.23
2023-09-15T09:45:18.529Z,11.93
2023-09-15T09:47:45.263Z,12.40
2023-09-15T09:50:12.494Z,9.98
2023-09-15T09:52:40.492Z,9.70
2023-09-15T09:55:09.572Z,9.10
2023-09-15T09:57:39.295Z,11.18
2023-09-15T10:00:11.007Z,10.88
2023-09-15T10:02:38.896Z,7.60
2023-09-15T10:05:05.676Z,10.15
2023-09-15T10:07:32.221Z,9.00
2023-09-15T10:09:59.608Z,9.23
2023-09-15T10:12:26.867Z,7.65
2023-09-15T10:14:53.737Z,9.50
2023-09-15T10:17:20.967Z,7.85
2023-09-15T10:19:49.499Z,5.83
2023-09-15T10:22:17.447Z,8.35
2023-09-15T10:24:48.776Z,6.78
2023-09-15T10:27:15.866Z,7.90
2023-09-15T10:29:46.130Z,7.82
2023-09-15T10:32:19.374Z,7.63
2023-09-15T10:34:47.020Z,7.60
2023-09-15T10:37:14.187Z,6.97
2023-09-15T10:39:42.978Z,7.03
2023-09-15T10:42:11.631Z,6.50
2023-09-15T10:44:38.095Z,7.22
2023-09-15T10:47:16.948Z,6.53
2023-09-15T10:49:50.201Z,8.43
2023-09-15T10:52:16.706Z,7.97
2023-09-15T10:54:43.139Z,9.00
2023-09-15T10:57:10.339Z,8.73
2023-09-15T10:59:37.362Z,6.22
2023-09-15T11:02:04.279Z,9.05
2023-09-15T11:04:30.954Z,7.72
2023-09-15T11:06:58.110Z,8.48
2023-09-15T11:09:26.333Z,7.30
2023-09-15T11:11:53.390Z,9.68
2023-09-15T11:14:22.488Z,8.77
2023-09-15T11:16:51.057Z,7.78
2023-09-15T11:19:23.810Z,8.55
2023-09-15T11:21:50.731Z,6.50
2023-09-15T11:24:17.242Z,8.43
2023-09-15T11:26:48.674Z,8.88
2023-09-15T11:29:16.331Z,8.45
2023-09-15T11:31:44.092Z,8.07
2023-09-15T11:34:14.226Z,7.40
2023-09-15T11:36:42.318Z,5.00
2023-09-15T11:39:12.275Z,7.63
2023-09-15T11:41:55.820Z,7.18
2023-09-15T11:44:27.058Z,7.82
2023-09-15T11:46:56.738Z,7.85
2023-09-15T11:49:24.924Z,9.80
2023-09-15T11:51:52.076Z,7.63
2023-09-15T11:54:19.406Z,7.55
2023-09-15T11:56:47.851Z,9.80
2023-09-15T11:59:16.319Z,10.23
2023-09-15T12:01:43.585Z,9.20
2023-09-15T12:06:42.059Z,8.18
2023-09-15T12:09:11.930Z,10.40
2023-09-15T12:11:47.903Z,8.32
2023-09-15T12:14:15.150Z,6.63
2023-09-15T12:16:45.674Z,4.35
2023-09-15T12:19:12.936Z,7.18
2023-09-15T12:21:51.595Z,9.15
2023-09-15T12:24:18.155Z,7.13
2023-09-15T12:26:44.599Z,6.65
2023-09-15T12:29:11.678Z,10.85
2023-09-15T12:31:45.669Z,6.88
2023-09-15T12:34:21.098Z,12.23
2023-09-15T12:36:49.262Z,8.10
2023-09-15T12:41:44.295Z,8.65
2023-09-15T12:44:12.205Z,8.45
2023-09-15T12:46:38.788Z,8.05
2023-09-15T12:49:05.464Z,8.02
2023-09-15T12:51:32.007Z,7.45
2023-09-15T12:53:58.589Z,6.50
2023-09-15T12:56:25.083Z,10.88
2023-09-15T12:58:51.511Z,9.02
2023-09-15T13:01:18.039Z,9.35
2023-09-15T13:03:44.784Z,12.95
2023-09-15T13:06:11.635Z,9.90
2023-09-15T13:08:38.118Z,7.93
2023-09-15T13:11:04.573Z,10.85
2023-09-15T13:13:30.994Z,8.05
2023-09-15T13:15:57.460Z,8.48
2023-09-15T13:18:25.160Z,9.25
2023-09-15T13:23:18.033Z,11.95
2023-09-15T13:25:44.523Z,8.10
2023-09-15T13:28:12.155Z,8.80
2023-09-15T13:33:08.038Z,10.52
2023-09-15T13:35:34.619Z,7.35
2023-09-15T13:38:01.539Z,7.80
2023-09-15T13:40:29.702Z,8.02
2023-09-15T13:42:58.055Z,7.88
2023-09-15T13:45:24.625Z,7.60
2023-09-15T13:47:51.103Z,8.52
2023-09-15T13:50:17.758Z,8.73
2023-09-15T13:52:44.177Z,6.90
2023-09-15T13:55:10.811Z,10.55
2023-09-15T13:57:39.577Z,9.35
2023-09-15T14:00:07.360Z,10.80
2023-09-15T14:02:35.193Z,8.50
2023-09-15T14:05:03.603Z,8.98
2023-09-15T14:07:30.080Z,9.75
2023-09-15T14:09:56.533Z,7.57
2023-09-15T14:12:23.053Z,10.02
2023-09-15T14:14:49.568Z,7.57
2023-09-15T14:17:16.074Z,6.57
2023-09-15T14:19:42.653Z,9.00
2023-09-15T14:22:09.285Z,10.02
2023-09-15T14:24:36.941Z,8.75
2023-09-15T14:27:04.273Z,12.10
2023-09-15T14:29:31.336Z,17.17
2023-09-15T14:32:01.858Z,7.80
2023-09-15T14:34:28.900Z,9.80
2023-09-15T14:36:56.071Z,7.10
2023-09-15T14:39:22.739Z,9.20
2023-09-15T14:41:49.729Z,7.95
2023-09-15T14:44:21.054Z,9.55
2023-09-15T14:46:48.629Z,7.20
2023-09-15T14:49:15.739Z,10.95
2023-09-15T14:51:42.790Z,13.10
2023-09-15T14:54:09.570Z,10.23
2023-09-15T14:56:36.498Z,10.77
2023-09-15T14:59:03.411Z,7.67
2023-09-15T15:01:30.065Z,9.00
2023-09-15T15:03:56.597Z,6.32
2023-09-15T15:06:23.158Z,7.75
2023-09-15T15:08:50.214Z,6.47
2023-09-15T15:11:16.867Z,7.70
2023-09-15T15:13:43.329Z,6.40
2023-09-15T15:16:12.277Z,8.00
2023-09-15T15:18:39.058Z,7.60
2023-09-15T15:21:05.536Z,7.05
2023-09-15T15:23:32.007Z,10.75
2023-09-15T15:26:05.099Z,5.95
2023-09-15T15:28:32.136Z,6.53
2023-09-15T15:30:58.833Z,7.63
2023-09-15T15:33:25.923Z,6.95
2023-09-15T15:36:02.348Z,5.07
2023-09-15T15:38:28.902Z,4.07
2023-09-15T15:41:04.164Z,7.75
2023-09-15T15:43:32.806Z,6.05
2023-09-15T15:46:04.731Z,8.68
2023-09-15T15:48:33.823Z,7.60
2023-09-15T15:51:03.896Z,5.72
2023-09-15T15:53:31.082Z,5.82
2023-09-15T15:55:57.710Z,5.50
2023-09-15T15:58:24.246Z,3.75
2023-09-15T16:00:50.718Z,4.55
2023-09-15T16:03:17.564Z,4.57
2023-09-15T16:05:44.230Z,4.78
2023-09-15T16:08:10.947Z,6.78
2023-09-15T16:10:37.915Z,4.63
2023-09-15T16:13:04.933Z,4.37
2023-09-15T16:15:31.419Z,5.23
2023-09-15T16:18:16.188Z,4.95
2023-09-15T16:20:53.849Z,6.45
2023-09-15T16:23:20.257Z,5.03
2023-09-15T16:25:48.463Z,5.50
2023-09-15T16:28:14.912Z,4.68
2023-09-15T16:30:43.163Z,6.25
2023-09-15T16:33:11.059Z,6.38
2023-09-15T16:38:05.375Z,6.88
2023-09-15T16:40:32.104Z,4.83
2023-09-15T16:42:58.817Z,5.00
2023-09-15T16:45:25.531Z,5.57
2023-09-15T16:47:52.652Z,6.88
2023-09-15T16:50:19.892Z,7.33
2023-09-15T16:52:47.156Z,6.35
2023-09-15T16:55:15.149Z,5.13
2023-09-15T16:57:41.863Z,6.40
2023-09-15T17:00:09.519Z,4.32
2023-09-15T17:02:37.345Z,9.60
2023-09-15T17:07:30.729Z,6.63
2023-09-15T17:09:57.253Z,7.65
2023-09-15T17:12:25.230Z,6.10
2023-09-15T17:17:19.113Z,5.95
2023-09-15T17:19:45.747Z,5.22
2023-09-15T17:22:12.874Z,4.50
2023-09-15T17:24:42.655Z,4.60
2023-09-15T17:27:12.976Z,4.57
2023-09-15T17:29:39.456Z,6.75
2023-09-15T17:32:06.652Z,6.00
2023-09-15T17:34:33.191Z,6.30
2023-09-15T17:36:59.605Z,8.05
2023-09-15T17:39:28.071Z,6.35
2023-09-15T17:41:56.235Z,7.63
2023-09-15T17:44:23.066Z,6.60
2023-09-15T17:46:49.499Z,7.53
2023-09-15T17:49:15.966Z,6.80
2023-09-15T17:51:42.489Z,5.32
2023-09-15T17:54:11.590Z,6.95
2023-09-15T17:56:38.094Z,11.35
2023-09-15T17:59:04.782Z,9.75
2023-09-15T18:01:31.462Z,6.90
2023-09-15T18:03:58.035Z,7.95
2023-09-15T18:06:24.560Z,8.60
2023-09-15T18:08:51.367Z,6.88
2023-09-15T18:11:18.335Z,7.25
2023-09-15T18:13:46.894Z,6.35
2023-09-15T18:16:17.591Z,6.72
2023-09-15T18:18:46.032Z,9.57
2023-09-15T18:21:14.032Z,8.80
2023-09-15T18:23:40.569Z,8.02
2023-09-15T18:26:07.210Z,6.57
2023-09-15T18:28:34.504Z,6.05
2023-09-15T18:31:01.139Z,5.78
2023-09-15T18:33:28.425Z,6.75
2023-09-15T18:35:55.093Z,8.60
2023-09-15T18:38:21.536Z,8.90
2023-09-15T18:40:48.157Z,10.63
2023-09-15T18:43:14.561Z,10.02
2023-09-15T18:45:43.907Z,9.50
2023-09-15T18:48:10.533Z,7.93
2023-09-15T18:50:38.084Z,10.10
2023-09-15T18:53:05.866Z,7.45
2023-09-15T18:55:32.311Z,9.45
2023-09-15T18:58:00.856Z,9.90
2023-09-15T19:00:27.879Z,8.82
2023-09-15T19:02:55.669Z,12.55
2023-09-15T19:05:22.198Z,10.13
2023-09-15T19:07:48.676Z,9.45
2023-09-15T19:10:15.507Z,9.88
2023-09-15T19:12:41.990Z,13.95
2023-09-15T19:15:08.920Z,12.57
2023-09-15T19:17:35.391Z,9.15
2023-09-15T19:20:02.813Z,11.55
2023-09-15T19:22:29.534Z,12.15
2023-09-15T19:24:56.162Z,11.98
2023-09-15T19:27:22.628Z,11.38
2023-09-15T19:29:49.244Z,12.50
2023-09-15T19:32:15.983Z,10.35
2023-09-15T19:34:44.513Z,10.57
2023-09-15T19:37:11.175Z,10.02
2023-09-15T19:39:38.768Z,10.30
2023-09-15T19:42:05.492Z,13.02
2023-09-15T19:44:32.078Z,10.40
2023-09-15T19:46:58.670Z,14.70
2023-09-15T19:49:25.125Z,10.70
2023-09-15T19:51:51.547Z,11.20
2023-09-15T19:54:18.073Z,8.30
2023-09-15T19:56:44.524Z,13.65
2023-09-15T19:59:10.982Z,10.75
2023-09-15T20:01:37.717Z,14.52
2023-09-15T20:04:04.321Z,10.75
2023-09-15T20:06:30.885Z,10.60
2023-09-15T20:09:00.003Z,10.23
2023-09-15T20:11:26.759Z,11.32
2023-09-15T20:13:53.223Z,10.23
2023-09-15T20:16:19.860Z,11.55
2023-09-15T20:18:46.662Z,12.20
2023-09-15T20:21:13.300Z,9.30
2023-09-15T20:23:40.088Z,9.27
2023-09-15T20:26:06.634Z,9.98
2023-09-15T20:28:33.493Z,9.20
2023-09-15T20:31:00.094Z,8.70
2023-09-15T20:33:26.860Z,8.95
2023-09-15T20:35:53.376Z,13.02
2023-09-15T20:38:19.847Z,8.40
2023-09-15T20:40:46.275Z,9.07
2023-09-15T20:43:14.055Z,12.85
2023-09-15T20:45:40.664Z,12.60
2023-09-15T20:48:07.425Z,10.73
2023-09-15T20:50:33.940Z,14.30
2023-09-15T20:53:00.469Z,10.27
2023-09-15T20:55:28.127Z,10.77
2023-09-15T20:57:54.668Z,11.90
2023-09-15T21:00:21.326Z,9.45
2023-09-15T21:02:48.388Z,10.63
2023-09-15T21:05:15.627Z,9.57
2023-09-15T21:07:43.260Z,8.57
2023-09-15T21:10:10.651Z,9.70
2023-09-15T21:12:37.993Z,10.57
2023-09-15T21:15:05.434Z,7.93
2023-09-15T21:17:32.853Z,11.37
2023-09-15T21:19:59.648Z,9.63
2023-09-15T21:22:26.449Z,9.25
2023-09-15T21:24:52.893Z,9.88
2023-09-15T21:27:19.484Z,9.13
2023-09-15T21:29:47.919Z,11.10
2023-09-15T21:32:15.619Z,10.90
2023-09-15T21:34:42.735Z,10.45
2023-09-15T21:37:09.303Z,9.82
2023-09-15T21:39:35.840Z,13.13
2023-09-15T21:42:03.875Z,10.82
2023-09-15T21:44:30.354Z,11.00
2023-09-15T21:46:56.868Z,9.30
2023-09-15T21:49:23.281Z,9.95
2023-09-15T21:51:49.849Z,9.88
2023-09-15T21:54:16.361Z,10.07
2023-09-15T21:56:43.170Z,10.85
2023-09-15T21:59:10.117Z,10.13
2023-09-15T22:01:36.570Z,10.48
2023-09-15T22:04:03.460Z,9.70
2023-09-15T22:06:29.977Z,12.90
2023-09-15T22:08:57.523Z,12.15
2023-09-15T22:11:24.504Z,10.80
2023-09-15T22:13:50.965Z,9.65
2023-09-15T22:16:17.496Z,10.60
2023-09-15T22:18:45.357Z,10.60
2023-09-15T22:21:12.029Z,11.00
2023-09-15T22:23:38.547Z,9.88
2023-09-15T22:26:04.950Z,12.50
2023-09-15T22:28:31.641Z,12.68
2023-09-15T22:30:58.060Z,10.77
2023-09-15T22:33:24.479Z,9.50
2023-09-15T22:35:51.467Z,9.77
2023-09-15T22:38:18.553Z,12.45
2023-09-15T22:40:45.103Z,8.60
2023-09-15T22:43:11.600Z,12.70
2023-09-15T22:45:38.531Z,10.10
2023-09-15T22:48:06.926Z,9.48
2023-09-15T22:50:36.388Z,10.73
2023-09-15T22:53:04.213Z,9.45
2023-09-15T22:55:30.674Z,7.38
2023-09-15T22:57:57.547Z,7.60
2023-09-15T23:00:24.083Z,9.95
2023-09-15T23:02:51.442Z,9.35
2023-09-15T23:05:18.672Z,9.40
2023-09-15T23:07:45.289Z,8.30
2023-09-15T23:10:12.132Z,9.90
2023-09-15T23:12:41.952Z,9.55
2023-09-15T23:15:09.277Z,12.00
2023-09-15T23:17:35.901Z,10.73
2023-09-15T23:20:04.234Z,13.30
2023-09-15T23:22:31.386Z,9.38
2023-09-15T23:24:58.063Z,8.32
2023-09-15T23:27:24.694Z,10.13
2023-09-15T23:29:52.298Z,8.90
2023-09-15T23:32:18.864Z,8.40
2023-09-15T23:34:45.334Z,10.52
2023-09-15T23:37:12.921Z,9.33
2023-09-15T23:39:39.513Z,10.43
2023-09-15T23:42:06.123Z,12.25
2023-09-15T23:44:33.057Z,9.65
2023-09-15T23:46:59.581Z,9.55
2023-09-15T23:49:26.039Z,11.77
2023-09-15T23:51:52.609Z,10.13
2023-09-15T23:54:19.223Z,11.02
2023-09-15T23:56:46.399Z,9.38
2023-09-15T23:59:13.256Z,9.52
